sensor_id;sensor_type;location;lat;lon;timestamp;P1;durP1;ratioP1;P2;durP2;ratioP2
10769;SDS011;5437;50.852;4.438;2023-04-25T00:00:12;10.30;;;4.00;;
10769;SDS011;5437;50.852;4.438;2023-04-25T00:02:38;10.98;;;4.07;;
10769;SDS011;5437;50.852;4.438;2023-04-25T00:05:04;11.20;;;3.95;;
10769;SDS011;5437;50.852;4.438;2023-04-25T00:07:31;9.38;;;3.72;;
10769;SDS011;5437;50.852;4.438;2023-04-25T00:09:57;12.55;;;3.92;;
10769;SDS011;5437;50.852;4.438;2023-04-25T00:12:23;9.45;;;3.70;;
10769;SDS011;5437;50.852;4.438;2023-04-25T00:14:50;10.20;;;3.65;;
10769;SDS011;5437;50.852;4.438;2023-04-25T00:17:17;12.77;;;4.00;;
10769;SDS011;5437;50.852;4.438;2023-04-25T00:19:44;10.73;;;3.70;;
10769;SDS011;5437;50.852;4.438;2023-04-25T00:22:11;11.10;;;3.55;;
10769;SDS011;5437;50.852;4.438;2023-04-25T00:24:38;13.13;;;4.03;;
10769;SDS011;5437;50.852;4.438;2023-04-25T00:27:05;10.77;;;4.15;;
10769;SDS011;5437;50.852;4.438;2023-04-25T00:29:31;12.32;;;4.07;;
10769;SDS011;5437;50.852;4.438;2023-04-25T00:31:57;9.95;;;3.85;;
10769;SDS011;5437;50.852;4.438;2023-04-25T00:34:23;12.88;;;3.92;;
10769;SDS011;5437;50.852;4.438;2023-04-25T00:36:50;10.10;;;4.03;;
10769;SDS011;5437;50.852;4.438;2023-04-25T00:39:16;8.18;;;3.75;;
10769;SDS011;5437;50.852;4.438;2023-04-25T00:41:42;11.70;;;3.75;;
10769;SDS011;5437;50.852;4.438;2023-04-25T00:44:08;11.55;;;3.47;;
10769;SDS011;5437;50.852;4.438;2023-04-25T00:46:38;10.52;;;4.03;;
10769;SDS011;5437;50.852;4.438;2023-04-25T00:49:05;10.70;;;4.28;;
10769;SDS011;5437;50.852;4.438;2023-04-25T00:51:31;11.57;;;3.75;;
10769;SDS011;5437;50.852;4.438;2023-04-25T00:53:58;10.10;;;3.53;;
10769;SDS011;5437;50.852;4.438;2023-04-25T00:56:24;10.98;;;4.32;;
10769;SDS011;5437;50.852;4.438;2023-04-25T00:58:51;8.98;;;3.80;;
10769;SDS011;5437;50.852;4.438;2023-04-25T01:01:21;10.98;;;3.97;;
10769;SDS011;5437;50.852;4.438;2023-04-25T01:03:47;12.75;;;4.30;;
10769;SDS011;5437;50.852;4.438;2023-04-25T01:06:16;11.52;;;4.05;;
10769;SDS011;5437;50.852;4.438;2023-04-25T01:08:42;11.77;;;4.35;;
10769;SDS011;5437;50.852;4.438;2023-04-25T01:11:08;12.48;;;3.85;;
10769;SDS011;5437;50.852;4.438;2023-04-25T01:13:34;12.52;;;4.25;;
10769;SDS011;5437;50.852;4.438;2023-04-25T01:16:01;14.15;;;4.50;;
10769;SDS011;5437;50.852;4.438;2023-04-25T01:18:27;11.82;;;4.13;;
10769;SDS011;5437;50.852;4.438;2023-04-25T01:20:54;10.13;;;4.40;;
10769;SDS011;5437;50.852;4.438;2023-04-25T01:23:21;12.75;;;4.90;;
10769;SDS011;5437;50.852;4.438;2023-04-25T01:25:47;13.63;;;4.15;;
10769;SDS011;5437;50.852;4.438;2023-04-25T01:28:14;13.57;;;4.30;;
10769;SDS011;5437;50.852;4.438;2023-04-25T01:30:40;13.90;;;4.30;;
10769;SDS011;5437;50.852;4.438;2023-04-25T01:33:07;9.95;;;4.18;;
10769;SDS011;5437;50.852;4.438;2023-04-25T01:35:34;11.48;;;4.25;;
10769;SDS011;5437;50.852;4.438;2023-04-25T01:38:00;10.88;;;4.65;;
10769;SDS011;5437;50.852;4.438;2023-04-25T01:40:26;10.25;;;3.70;;
10769;SDS011;5437;50.852;4.438;2023-04-25T01:42:53;12.02;;;4.03;;
10769;SDS011;5437;50.852;4.438;2023-04-25T01:45:20;15.93;;;4.78;;
10769;SDS011;5437;50.852;4.438;2023-04-25T01:47:46;14.52;;;4.93;;
10769;SDS011;5437;50.852;4.438;2023-04-25T01:50:14;16.17;;;4.38;;
10769;SDS011;5437;50.852;4.438;2023-04-25T01:52:40;13.73;;;4.50;;
10769;SDS011;5437;50.852;4.438;2023-04-25T01:55:07;11.73;;;4.28;;
10769;SDS011;5437;50.852;4.438;2023-04-25T01:57:33;14.73;;;4.82;;
10769;SDS011;5437;50.852;4.438;2023-04-25T02:00:00;13.98;;;5.15;;
10769;SDS011;5437;50.852;4.438;2023-04-25T02:02:26;10.45;;;4.38;;
10769;SDS011;5437;50.852;4.438;2023-04-25T02:04:52;9.88;;;4.35;;
10769;SDS011;5437;50.852;4.438;2023-04-25T02:07:19;11.75;;;4.38;;
10769;SDS011;5437;50.852;4.438;2023-04-25T02:09:45;12.02;;;4.40;;
10769;SDS011;5437;50.852;4.438;2023-04-25T02:12:12;15.77;;;4.88;;
10769;SDS011;5437;50.852;4.438;2023-04-25T02:14:38;15.43;;;4.82;;
10769;SDS011;5437;50.852;4.438;2023-04-25T02:17:04;14.50;;;5.20;;
10769;SDS011;5437;50.852;4.438;2023-04-25T02:19:31;11.23;;;4.75;;
10769;SDS011;5437;50.852;4.438;2023-04-25T02:21:57;12.63;;;4.82;;
10769;SDS011;5437;50.852;4.438;2023-04-25T02:24:23;13.38;;;4.80;;
10769;SDS011;5437;50.852;4.438;2023-04-25T02:26:49;12.35;;;4.47;;
10769;SDS011;5437;50.852;4.438;2023-04-25T02:29:15;12.02;;;4.88;;
10769;SDS011;5437;50.852;4.438;2023-04-25T02:31:42;12.88;;;4.70;;
10769;SDS011;5437;50.852;4.438;2023-04-25T02:34:08;13.40;;;4.65;;
10769;SDS011;5437;50.852;4.438;2023-04-25T02:36:34;12.95;;;4.75;;
10769;SDS011;5437;50.852;4.438;2023-04-25T02:39:00;13.57;;;5.03;;
10769;SDS011;5437;50.852;4.438;2023-04-25T02:41:28;13.85;;;4.85;;
10769;SDS011;5437;50.852;4.438;2023-04-25T02:43:54;14.13;;;5.20;;
10769;SDS011;5437;50.852;4.438;2023-04-25T02:46:20;10.73;;;4.88;;
10769;SDS011;5437;50.852;4.438;2023-04-25T02:48:46;12.30;;;5.10;;
10769;SDS011;5437;50.852;4.438;2023-04-25T02:51:12;11.00;;;4.55;;
10769;SDS011;5437;50.852;4.438;2023-04-25T02:53:38;11.07;;;5.47;;
10769;SDS011;5437;50.852;4.438;2023-04-25T02:56:05;15.75;;;4.50;;
10769;SDS011;5437;50.852;4.438;2023-04-25T02:58:31;14.38;;;5.00;;
10769;SDS011;5437;50.852;4.438;2023-04-25T03:00:57;13.43;;;4.85;;
10769;SDS011;5437;50.852;4.438;2023-04-25T03:03:23;12.80;;;5.30;;
10769;SDS011;5437;50.852;4.438;2023-04-25T03:05:49;11.68;;;4.32;;
10769;SDS011;5437;50.852;4.438;2023-04-25T03:08:16;12.80;;;5.05;;
10769;SDS011;5437;50.852;4.438;2023-04-25T03:10:42;11.20;;;5.25;;
10769;SDS011;5437;50.852;4.438;2023-04-25T03:13:08;12.98;;;5.05;;
10769;SDS011;5437;50.852;4.438;2023-04-25T03:15:34;12.65;;;4.63;;
10769;SDS011;5437;50.852;4.438;2023-04-25T03:18:01;12.65;;;5.00;;
10769;SDS011;5437;50.852;4.438;2023-04-25T03:20:27;14.13;;;4.80;;
10769;SDS011;5437;50.852;4.438;2023-04-25T03:22:53;11.15;;;4.40;;
10769;SDS011;5437;50.852;4.438;2023-04-25T03:25:19;11.98;;;4.35;;
10769;SDS011;5437;50.852;4.438;2023-04-25T03:27:45;12.43;;;5.25;;
10769;SDS011;5437;50.852;4.438;2023-04-25T03:30:12;10.25;;;4.40;;
10769;SDS011;5437;50.852;4.438;2023-04-25T03:32:38;12.13;;;4.93;;
10769;SDS011;5437;50.852;4.438;2023-04-25T03:35:04;13.25;;;4.55;;
10769;SDS011;5437;50.852;4.438;2023-04-25T03:37:30;12.85;;;4.10;;
10769;SDS011;5437;50.852;4.438;2023-04-25T03:39:56;13.23;;;4.57;;
10769;SDS011;5437;50.852;4.438;2023-04-25T03:42:22;15.32;;;4.45;;
10769;SDS011;5437;50.852;4.438;2023-04-25T10:01:01;4.72;;;2.10;;
10769;SDS011;5437;50.852;4.438;2023-04-25T10:03:30;3.72;;;1.92;;
10769;SDS011;5437;50.852;4.438;2023-04-25T10:05:58;4.38;;;2.10;;
10769;SDS011;5437;50.852;4.438;2023-04-25T10:08:27;4.38;;;2.10;;
10769;SDS011;5437;50.852;4.438;2023-04-25T10:10:55;5.88;;;2.45;;
10769;SDS011;5437;50.852;4.438;2023-04-25T10:13:22;4.80;;;2.10;;
10769;SDS011;5437;50.852;4.438;2023-04-25T10:15:48;4.85;;;1.85;;
10769;SDS011;5437;50.852;4.438;2023-04-25T10:18:15;3.13;;;1.65;;
10769;SDS011;5437;50.852;4.438;2023-04-25T10:20:43;4.65;;;1.90;;
10769;SDS011;5437;50.852;4.438;2023-04-25T10:23:11;4.60;;;2.10;;
10769;SDS011;5437;50.852;4.438;2023-04-25T10:25:40;3.03;;;1.70;;
10769;SDS011;5437;50.852;4.438;2023-04-25T10:28:07;4.50;;;1.77;;
10769;SDS011;5437;50.852;4.438;2023-04-25T10:30:33;2.88;;;1.75;;
10769;SDS011;5437;50.852;4.438;2023-04-25T10:32:59;5.68;;;2.08;;
10769;SDS011;5437;50.852;4.438;2023-04-25T10:40:23;2.70;;;2.00;;
10769;SDS011;5437;50.852;4.438;2023-04-25T10:42:51;3.58;;;1.52;;
10769;SDS011;5437;50.852;4.438;2023-04-25T10:45:18;2.38;;;1.48;;
10769;SDS011;5437;50.852;4.438;2023-04-25T10:47:45;3.70;;;1.30;;
10769;SDS011;5437;50.852;4.438;2023-04-25T10:50:14;2.80;;;1.48;;
10769;SDS011;5437;50.852;4.438;2023-04-25T10:52:43;2.90;;;1.40;;
10769;SDS011;5437;50.852;4.438;2023-04-25T10:55:09;3.25;;;1.50;;
10769;SDS011;5437;50.852;4.438;2023-04-25T10:57:39;3.38;;;1.77;;
10769;SDS011;5437;50.852;4.438;2023-04-25T11:02:57;3.85;;;1.60;;
10769;SDS011;5437;50.852;4.438;2023-04-25T11:07:54;5.35;;;1.90;;
10769;SDS011;5437;50.852;4.438;2023-04-25T11:10:29;3.72;;;1.45;;
10769;SDS011;5437;50.852;4.438;2023-04-25T11:12:55;4.00;;;1.63;;
10769;SDS011;5437;50.852;4.438;2023-04-25T11:15:22;6.55;;;1.50;;
10769;SDS011;5437;50.852;4.438;2023-04-25T11:17:48;7.78;;;1.85;;
10769;SDS011;5437;50.852;4.438;2023-04-25T11:20:15;3.10;;;1.40;;
10769;SDS011;5437;50.852;4.438;2023-04-25T11:22:41;3.15;;;1.60;;
10769;SDS011;5437;50.852;4.438;2023-04-25T11:25:10;5.47;;;2.05;;
10769;SDS011;5437;50.852;4.438;2023-04-25T11:30:15;6.57;;;1.70;;
10769;SDS011;5437;50.852;4.438;2023-04-25T11:32:41;4.57;;;1.80;;
10769;SDS011;5437;50.852;4.438;2023-04-25T11:35:08;7.43;;;1.65;;
10769;SDS011;5437;50.852;4.438;2023-04-25T11:37:34;3.80;;;1.48;;
10769;SDS011;5437;50.852;4.438;2023-04-25T11:40:02;4.28;;;1.42;;
10769;SDS011;5437;50.852;4.438;2023-04-25T11:42:28;4.38;;;1.60;;
10769;SDS011;5437;50.852;4.438;2023-04-25T11:44:54;4.28;;;1.80;;
10769;SDS011;5437;50.852;4.438;2023-04-25T11:47:27;3.13;;;1.50;;
10769;SDS011;5437;50.852;4.438;2023-04-25T11:49:53;4.40;;;1.73;;
10769;SDS011;5437;50.852;4.438;2023-04-25T11:52:19;2.35;;;1.40;;
10769;SDS011;5437;50.852;4.438;2023-04-25T11:54:45;5.75;;;1.95;;
10769;SDS011;5437;50.852;4.438;2023-04-25T11:57:12;6.00;;;1.75;;
10769;SDS011;5437;50.852;4.438;2023-04-25T11:59:38;4.53;;;1.70;;
10769;SDS011;5437;50.852;4.438;2023-04-25T12:02:05;2.15;;;1.40;;
10769;SDS011;5437;50.852;4.438;2023-04-25T12:04:32;3.13;;;1.65;;
10769;SDS011;5437;50.852;4.438;2023-04-25T12:06:58;4.88;;;1.90;;
10769;SDS011;5437;50.852;4.438;2023-04-25T12:09:29;4.22;;;2.00;;
10769;SDS011;5437;50.852;4.438;2023-04-25T12:11:56;6.00;;;2.08;;
10769;SDS011;5437;50.852;4.438;2023-04-25T12:14:30;5.00;;;1.50;;
10769;SDS011;5437;50.852;4.438;2023-04-25T12:17:00;4.15;;;1.65;;
10769;SDS011;5437;50.852;4.438;2023-04-25T12:19:34;4.53;;;1.52;;
10769;SDS011;5437;50.852;4.438;2023-04-25T12:22:00;4.15;;;1.48;;
10769;SDS011;5437;50.852;4.438;2023-04-25T12:24:28;2.15;;;1.20;;
10769;SDS011;5437;50.852;4.438;2023-04-25T12:27:01;3.13;;;1.35;;
10769;SDS011;5437;50.852;4.438;2023-04-25T12:29:28;1.88;;;1.25;;
10769;SDS011;5437;50.852;4.438;2023-04-25T12:31:55;2.22;;;1.30;;
10769;SDS011;5437;50.852;4.438;2023-04-25T12:34:21;2.80;;;1.20;;
10769;SDS011;5437;50.852;4.438;2023-04-25T12:36:48;2.35;;;1.05;;
10769;SDS011;5437;50.852;4.438;2023-04-25T12:39:23;2.15;;;1.10;;
10769;SDS011;5437;50.852;4.438;2023-04-25T12:41:52;2.40;;;1.20;;
10769;SDS011;5437;50.852;4.438;2023-04-25T12:44:19;2.25;;;1.13;;
10769;SDS011;5437;50.852;4.438;2023-04-25T12:46:45;2.22;;;1.00;;
10769;SDS011;5437;50.852;4.438;2023-04-25T12:49:11;3.30;;;1.10;;
10769;SDS011;5437;50.852;4.438;2023-04-25T12:51:37;2.67;;;1.15;;
10769;SDS011;5437;50.852;4.438;2023-04-25T12:54:04;1.40;;;1.10;;
10769;SDS011;5437;50.852;4.438;2023-04-25T12:56:30;2.20;;;0.95;;
10769;SDS011;5437;50.852;4.438;2023-04-25T12:58:57;3.08;;;1.20;;
10769;SDS011;5437;50.852;4.438;2023-04-25T13:01:23;3.50;;;1.10;;
10769;SDS011;5437;50.852;4.438;2023-04-25T13:03:50;2.95;;;1.10;;
10769;SDS011;5437;50.852;4.438;2023-04-25T13:06:16;5.05;;;1.50;;
10769;SDS011;5437;50.852;4.438;2023-04-25T13:08:43;8.68;;;1.63;;
10769;SDS011;5437;50.852;4.438;2023-04-25T13:11:09;5.72;;;1.50;;
10769;SDS011;5437;50.852;4.438;2023-04-25T13:13:40;3.90;;;1.30;;
10769;SDS011;5437;50.852;4.438;2023-04-25T13:16:07;2.55;;;1.35;;
10769;SDS011;5437;50.852;4.438;2023-04-25T13:18:33;3.38;;;1.60;;
10769;SDS011;5437;50.852;4.438;2023-04-25T13:20:59;3.38;;;1.67;;
10769;SDS011;5437;50.852;4.438;2023-04-25T13:23:26;1.90;;;1.40;;
10769;SDS011;5437;50.852;4.438;2023-04-25T13:25:53;2.63;;;1.50;;
10769;SDS011;5437;50.852;4.438;2023-04-25T13:28:20;3.28;;;1.60;;
10769;SDS011;5437;50.852;4.438;2023-04-25T13:30:46;3.00;;;1.35;;
10769;SDS011;5437;50.852;4.438;2023-04-25T13:33:13;3.40;;;1.42;;
10769;SDS011;5437;50.852;4.438;2023-04-25T13:35:39;3.05;;;1.50;;
10769;SDS011;5437;50.852;4.438;2023-04-25T13:38:06;2.35;;;1.20;;
10769;SDS011;5437;50.852;4.438;2023-04-25T13:40:32;3.40;;;1.42;;
10769;SDS011;5437;50.852;4.438;2023-04-25T13:42:58;2.67;;;1.38;;
10769;SDS011;5437;50.852;4.438;2023-04-25T13:45:24;4.05;;;1.42;;
10769;SDS011;5437;50.852;4.438;2023-04-25T13:47:51;5.57;;;1.33;;
10769;SDS011;5437;50.852;4.438;2023-04-25T13:50:17;2.58;;;1.40;;
10769;SDS011;5437;50.852;4.438;2023-04-25T13:52:43;2.28;;;1.15;;
10769;SDS011;5437;50.852;4.438;2023-04-25T13:55:10;3.03;;;1.20;;
10769;SDS011;5437;50.852;4.438;2023-04-25T13:57:36;3.13;;;1.67;;
10769;SDS011;5437;50.852;4.438;2023-04-25T14:00:04;4.15;;;1.42;;
10769;SDS011;5437;50.852;4.438;2023-04-25T14:02:34;4.22;;;1.35;;
10769;SDS011;5437;50.852;4.438;2023-04-25T14:05:00;3.55;;;1.60;;
10769;SDS011;5437;50.852;4.438;2023-04-25T14:07:26;3.55;;;1.23;;
10769;SDS011;5437;50.852;4.438;2023-04-25T14:09:52;2.88;;;1.25;;
10769;SDS011;5437;50.852;4.438;2023-04-25T14:12:18;3.13;;;1.35;;
10769;SDS011;5437;50.852;4.438;2023-04-25T14:14:45;3.42;;;1.20;;
10769;SDS011;5437;50.852;4.438;2023-04-25T14:17:11;3.47;;;1.50;;
10769;SDS011;5437;50.852;4.438;2023-04-25T14:19:37;4.25;;;1.20;;
10769;SDS011;5437;50.852;4.438;2023-04-25T14:22:08;3.42;;;1.25;;
10769;SDS011;5437;50.852;4.438;2023-04-25T14:24:34;2.15;;;1.02;;
10769;SDS011;5437;50.852;4.438;2023-04-25T14:27:01;1.65;;;0.90;;
10769;SDS011;5437;50.852;4.438;2023-04-25T14:29:27;3.17;;;1.30;;
10769;SDS011;5437;50.852;4.438;2023-04-25T14:31:53;3.50;;;1.00;;
10769;SDS011;5437;50.852;4.438;2023-04-25T14:34:19;1.67;;;1.13;;
10769;SDS011;5437;50.852;4.438;2023-04-25T14:36:45;2.53;;;1.00;;
10769;SDS011;5437;50.852;4.438;2023-04-25T14:39:12;3.17;;;1.20;;
10769;SDS011;5437;50.852;4.438;2023-04-25T14:41:39;3.35;;;1.30;;
10769;SDS011;5437;50.852;4.438;2023-04-25T14:44:05;2.55;;;1.23;;
10769;SDS011;5437;50.852;4.438;2023-04-25T14:46:31;4.13;;;1.30;;
10769;SDS011;5437;50.852;4.438;2023-04-25T14:48:57;3.08;;;1.20;;
10769;SDS011;5437;50.852;4.438;2023-04-25T14:51:23;2.33;;;1.20;;
10769;SDS011;5437;50.852;4.438;2023-04-25T14:53:49;4.18;;;1.48;;
10769;SDS011;5437;50.852;4.438;2023-04-25T14:56:15;1.75;;;1.10;;
10769;SDS011;5437;50.852;4.438;2023-04-25T14:58:41;4.50;;;1.10;;
10769;SDS011;5437;50.852;4.438;2023-04-25T15:01:07;5.45;;;1.30;;
10769;SDS011;5437;50.852;4.438;2023-04-25T15:03:34;2.17;;;1.15;;
10769;SDS011;5437;50.852;4.438;2023-04-25T15:06:00;2.50;;;1.10;;
10769;SDS011;5437;50.852;4.438;2023-04-25T15:08:26;2.90;;;1.23;;
10769;SDS011;5437;50.852;4.438;2023-04-25T15:10:52;2.78;;;1.20;;
10769;SDS011;5437;50.852;4.438;2023-04-25T15:13:18;2.15;;;0.98;;
10769;SDS011;5437;50.852;4.438;2023-04-25T15:15:44;2.20;;;1.20;;
10769;SDS011;5437;50.852;4.438;2023-04-25T15:18:15;2.60;;;1.27;;
10769;SDS011;5437;50.852;4.438;2023-04-25T15:20:42;2.35;;;1.00;;
10769;SDS011;5437;50.852;4.438;2023-04-25T15:23:08;1.83;;;1.20;;
10769;SDS011;5437;50.852;4.438;2023-04-25T15:25:34;2.95;;;1.17;;
10769;SDS011;5437;50.852;4.438;2023-04-25T15:28:00;3.83;;;1.20;;
10769;SDS011;5437;50.852;4.438;2023-04-25T15:30:26;2.85;;;1.20;;
10769;SDS011;5437;50.852;4.438;2023-04-25T15:32:52;2.17;;;1.40;;
10769;SDS011;5437;50.852;4.438;2023-04-25T15:35:18;3.55;;;1.30;;
10769;SDS011;5437;50.852;4.438;2023-04-25T15:37:44;1.90;;;1.20;;
10769;SDS011;5437;50.852;4.438;2023-04-25T15:40:11;2.28;;;1.10;;
10769;SDS011;5437;50.852;4.438;2023-04-25T15:42:38;1.95;;;1.20;;
10769;SDS011;5437;50.852;4.438;2023-04-25T15:45:05;2.63;;;1.10;;
10769;SDS011;5437;50.852;4.438;2023-04-25T15:47:32;4.72;;;1.60;;
10769;SDS011;5437;50.852;4.438;2023-04-25T15:49:58;2.90;;;1.20;;
10769;SDS011;5437;50.852;4.438;2023-04-25T15:52:25;3.53;;;1.50;;
10769;SDS011;5437;50.852;4.438;2023-04-25T15:54:51;2.85;;;1.40;;
10769;SDS011;5437;50.852;4.438;2023-04-25T15:57:18;2.75;;;1.17;;
10769;SDS011;5437;50.852;4.438;2023-04-25T15:59:44;2.00;;;1.27;;
10769;SDS011;5437;50.852;4.438;2023-04-25T16:02:12;2.78;;;1.17;;
10769;SDS011;5437;50.852;4.438;2023-04-25T16:04:38;2.45;;;1.45;;
10769;SDS011;5437;50.852;4.438;2023-04-25T16:07:04;2.05;;;1.30;;
10769;SDS011;5437;50.852;4.438;2023-04-25T16:09:30;3.20;;;1.20;;
10769;SDS011;5437;50.852;4.438;2023-04-25T16:11:57;2.65;;;1.20;;
10769;SDS011;5437;50.852;4.438;2023-04-25T16:14:23;2.90;;;1.55;;
10769;SDS011;5437;50.852;4.438;2023-04-25T16:16:51;3.90;;;1.50;;
10769;SDS011;5437;50.852;4.438;2023-04-25T16:19:17;3.45;;;0.93;;
10769;SDS011;5437;50.852;4.438;2023-04-25T16:21:43;2.67;;;1.17;;
10769;SDS011;5437;50.852;4.438;2023-04-25T16:24:09;2.13;;;1.20;;
10769;SDS011;5437;50.852;4.438;2023-04-25T16:26:35;2.97;;;0.93;;
10769;SDS011;5437;50.852;4.438;2023-04-25T16:29:02;3.60;;;0.90;;
10769;SDS011;5437;50.852;4.438;2023-04-25T16:31:28;3.70;;;1.08;;
10769;SDS011;5437;50.852;4.438;2023-04-25T16:33:55;3.63;;;1.13;;
10769;SDS011;5437;50.852;4.438;2023-04-25T16:36:21;3.53;;;1.40;;
10769;SDS011;5437;50.852;4.438;2023-04-25T16:38:47;3.60;;;1.20;;
10769;SDS011;5437;50.852;4.438;2023-04-25T16:41:13;2.00;;;1.20;;
10769;SDS011;5437;50.852;4.438;2023-04-25T16:43:39;4.07;;;1.40;;
10769;SDS011;5437;50.852;4.438;2023-04-25T16:46:05;3.45;;;1.20;;
10769;SDS011;5437;50.852;4.438;2023-04-25T16:48:31;2.05;;;0.90;;
10769;SDS011;5437;50.852;4.438;2023-04-25T16:50:58;2.85;;;1.10;;
10769;SDS011;5437;50.852;4.438;2023-04-25T16:53:25;4.38;;;1.30;;
10769;SDS011;5437;50.852;4.438;2023-04-25T16:55:51;2.72;;;1.40;;
10769;SDS011;5437;50.852;4.438;2023-04-25T16:58:17;3.60;;;1.35;;
10769;SDS011;5437;50.852;4.438;2023-04-25T17:00:43;3.60;;;1.30;;
10769;SDS011;5437;50.852;4.438;2023-04-25T17:03:10;3.40;;;1.50;;
10769;SDS011;5437;50.852;4.438;2023-04-25T17:05:37;2.20;;;1.10;;
10769;SDS011;5437;50.852;4.438;2023-04-25T17:08:03;2.67;;;1.30;;
10769;SDS011;5437;50.852;4.438;2023-04-25T17:10:29;4.40;;;1.30;;
10769;SDS011;5437;50.852;4.438;2023-04-25T17:12:55;4.05;;;1.58;;
10769;SDS011;5437;50.852;4.438;2023-04-25T17:15:21;4.55;;;1.35;;
10769;SDS011;5437;50.852;4.438;2023-04-25T17:17:47;1.63;;;1.10;;
10769;SDS011;5437;50.852;4.438;2023-04-25T17:20:14;3.55;;;1.52;;
10769;SDS011;5437;50.852;4.438;2023-04-25T17:22:40;2.28;;;1.35;;
10769;SDS011;5437;50.852;4.438;2023-04-25T17:25:07;3.15;;;1.30;;
10769;SDS011;5437;50.852;4.438;2023-04-25T17:27:36;1.75;;;1.23;;
10769;SDS011;5437;50.852;4.438;2023-04-25T17:30:03;5.40;;;1.55;;
10769;SDS011;5437;50.852;4.438;2023-04-25T17:32:29;2.20;;;1.40;;
10769;SDS011;5437;50.852;4.438;2023-04-25T17:34:55;2.85;;;1.42;;
10769;SDS011;5437;50.852;4.438;2023-04-25T17:37:23;4.25;;;1.58;;
10769;SDS011;5437;50.852;4.438;2023-04-25T17:39:51;3.85;;;1.30;;
10769;SDS011;5437;50.852;4.438;2023-04-25T17:42:17;5.13;;;1.48;;
10769;SDS011;5437;50.852;4.438;2023-04-25T17:44:45;3.10;;;1.20;;
10769;SDS011;5437;50.852;4.438;2023-04-25T17:47:11;2.28;;;1.20;;
10769;SDS011;5437;50.852;4.438;2023-04-25T17:49:37;3.08;;;1.20;;
10769;SDS011;5437;50.852;4.438;2023-04-25T17:52:03;2.78;;;1.20;;
10769;SDS011;5437;50.852;4.438;2023-04-25T17:54:30;2.85;;;1.10;;
10769;SDS011;5437;50.852;4.438;2023-04-25T17:56:56;2.63;;;1.20;;
10769;SDS011;5437;50.852;4.438;2023-04-25T17:59:22;2.63;;;1.38;;
10769;SDS011;5437;50.852;4.438;2023-04-25T18:01:49;4.05;;;1.10;;
10769;SDS011;5437;50.852;4.438;2023-04-25T18:04:15;3.60;;;1.27;;
10769;SDS011;5437;50.852;4.438;2023-04-25T18:06:42;3.67;;;1.30;;
10769;SDS011;5437;50.852;4.438;2023-04-25T18:09:08;3.00;;;1.55;;
10769;SDS011;5437;50.852;4.438;2023-04-25T18:11:41;2.30;;;1.48;;
10769;SDS011;5437;50.852;4.438;2023-04-25T18:14:07;3.13;;;1.63;;
10769;SDS011;5437;50.852;4.438;2023-04-25T18:16:41;4.05;;;1.75;;
10769;SDS011;5437;50.852;4.438;2023-04-25T18:19:07;3.53;;;1.25;;
10769;SDS011;5437;50.852;4.438;2023-04-25T18:21:40;4.05;;;1.60;;
10769;SDS011;5437;50.852;4.438;2023-04-25T18:24:07;5.13;;;1.60;;
10769;SDS011;5437;50.852;4.438;2023-04-25T18:26:36;6.88;;;1.65;;
10769;SDS011;5437;50.852;4.438;2023-04-25T18:29:03;4.40;;;1.63;;
10769;SDS011;5437;50.852;4.438;2023-04-25T18:31:29;4.65;;;1.70;;
10769;SDS011;5437;50.852;4.438;2023-04-25T18:33:56;3.95;;;1.55;;
10769;SDS011;5437;50.852;4.438;2023-04-25T18:36:22;6.45;;;1.98;;
10769;SDS011;5437;50.852;4.438;2023-04-25T18:38:48;4.53;;;1.40;;
10769;SDS011;5437;50.852;4.438;2023-04-25T18:41:19;3.70;;;1.65;;
10769;SDS011;5437;50.852;4.438;2023-04-25T18:43:46;3.88;;;1.30;;
10769;SDS011;5437;50.852;4.438;2023-04-25T18:46:12;5.13;;;1.70;;
10769;SDS011;5437;50.852;4.438;2023-04-25T18:48:38;6.60;;;1.92;;
10769;SDS011;5437;50.852;4.438;2023-04-25T18:51:04;5.07;;;1.92;;
10769;SDS011;5437;50.852;4.438;2023-04-25T18:53:30;5.20;;;1.80;;
10769;SDS011;5437;50.852;4.438;2023-04-25T18:55:57;4.07;;;1.80;;
10769;SDS011;5437;50.852;4.438;2023-04-25T18:58:23;4.78;;;1.83;;
10769;SDS011;5437;50.852;4.438;2023-04-25T19:00:49;3.22;;;1.50;;
10769;SDS011;5437;50.852;4.438;2023-04-25T19:03:16;4.00;;;1.63;;
10769;SDS011;5437;50.852;4.438;2023-04-25T19:05:42;3.92;;;1.60;;
10769;SDS011;5437;50.852;4.438;2023-04-25T19:08:08;3.95;;;1.67;;
10769;SDS011;5437;50.852;4.438;2023-04-25T19:10:34;4.25;;;1.73;;
10769;SDS011;5437;50.852;4.438;2023-04-25T19:13:00;1.95;;;1.60;;
10769;SDS011;5437;50.852;4.438;2023-04-25T19:15:26;3.70;;;1.52;;
10769;SDS011;5437;50.852;4.438;2023-04-25T19:17:52;4.38;;;1.63;;
10769;SDS011;5437;50.852;4.438;2023-04-25T19:20:18;4.82;;;1.63;;
10769;SDS011;5437;50.852;4.438;2023-04-25T19:22:45;4.63;;;1.40;;
10769;SDS011;5437;50.852;4.438;2023-04-25T19:25:11;4.57;;;1.80;;
10769;SDS011;5437;50.852;4.438;2023-04-25T19:27:37;3.47;;;1.70;;
10769;SDS011;5437;50.852;4.438;2023-04-25T19:30:04;5.13;;;1.55;;
10769;SDS011;5437;50.852;4.438;2023-04-25T19:32:33;4.55;;;1.73;;
10769;SDS011;5437;50.852;4.438;2023-04-25T19:35:00;4.05;;;1.60;;
10769;SDS011;5437;50.852;4.438;2023-04-25T19:37:27;2.67;;;1.70;;
10769;SDS011;5437;50.852;4.438;2023-04-25T19:39:54;3.15;;;1.52;;
10769;SDS011;5437;50.852;4.438;2023-04-25T19:42:20;4.00;;;1.63;;
10769;SDS011;5437;50.852;4.438;2023-04-25T19:44:47;6.15;;;1.95;;
10769;SDS011;5437;50.852;4.438;2023-04-25T19:47:13;3.10;;;1.63;;
10769;SDS011;5437;50.852;4.438;2023-04-25T19:49:39;4.60;;;1.90;;
10769;SDS011;5437;50.852;4.438;2023-04-25T19:52:05;4.43;;;2.08;;
10769;SDS011;5437;50.852;4.438;2023-04-25T19:54:32;6.25;;;2.00;;
10769;SDS011;5437;50.852;4.438;2023-04-25T19:56:59;5.85;;;1.90;;
10769;SDS011;5437;50.852;4.438;2023-04-25T19:59:25;4.07;;;1.70;;
10769;SDS011;5437;50.852;4.438;2023-04-25T20:01:52;1.98;;;1.73;;
10769;SDS011;5437;50.852;4.438;2023-04-25T20:04:18;4.15;;;1.77;;
10769;SDS011;5437;50.852;4.438;2023-04-25T20:06:50;6.03;;;2.00;;
10769;SDS011;5437;50.852;4.438;2023-04-25T20:09:17;6.78;;;2.10;;
10769;SDS011;5437;50.852;4.438;2023-04-25T20:11:45;5.13;;;1.90;;
10769;SDS011;5437;50.852;4.438;2023-04-25T20:14:11;5.38;;;1.83;;
10769;SDS011;5437;50.852;4.438;2023-04-25T20:16:37;5.15;;;1.85;;
10769;SDS011;5437;50.852;4.438;2023-04-25T20:19:03;4.75;;;1.70;;
10769;SDS011;5437;50.852;4.438;2023-04-25T20:21:29;3.63;;;1.90;;
10769;SDS011;5437;50.852;4.438;2023-04-25T20:23:58;3.80;;;1.85;;
10769;SDS011;5437;50.852;4.438;2023-04-25T20:26:25;4.93;;;2.10;;
10769;SDS011;5437;50.852;4.438;2023-04-25T20:28:51;6.20;;;2.00;;
10769;SDS011;5437;50.852;4.438;2023-04-25T20:31:18;4.60;;;1.80;;
10769;SDS011;5437;50.852;4.438;2023-04-25T20:33:44;4.68;;;2.20;;
10769;SDS011;5437;50.852;4.438;2023-04-25T20:36:10;6.80;;;2.33;;
10769;SDS011;5437;50.852;4.438;2023-04-25T20:38:39;6.65;;;2.30;;
10769;SDS011;5437;50.852;4.438;2023-04-25T20:41:05;7.22;;;2.63;;
10769;SDS011;5437;50.852;4.438;2023-04-25T20:43:31;7.30;;;2.30;;
10769;SDS011;5437;50.852;4.438;2023-04-25T20:45:58;4.05;;;2.55;;
10769;SDS011;5437;50.852;4.438;2023-04-25T20:48:25;6.75;;;2.53;;
10769;SDS011;5437;50.852;4.438;2023-04-25T20:50:51;4.90;;;2.47;;
10769;SDS011;5437;50.852;4.438;2023-04-25T20:53:17;4.97;;;2.17;;
10769;SDS011;5437;50.852;4.438;2023-04-25T20:55:43;4.95;;;2.38;;
10769;SDS011;5437;50.852;4.438;2023-04-25T20:58:09;7.28;;;2.70;;
10769;SDS011;5437;50.852;4.438;2023-04-25T21:00:35;3.30;;;2.25;;
10769;SDS011;5437;50.852;4.438;2023-04-25T21:03:03;4.20;;;2.53;;
10769;SDS011;5437;50.852;4.438;2023-04-25T21:05:29;6.05;;;2.35;;
10769;SDS011;5437;50.852;4.438;2023-04-25T21:07:56;5.28;;;2.63;;
10769;SDS011;5437;50.852;4.438;2023-04-25T21:10:22;6.97;;;2.53;;
10769;SDS011;5437;50.852;4.438;2023-04-25T21:12:49;4.40;;;2.42;;
10769;SDS011;5437;50.852;4.438;2023-04-25T21:15:16;6.47;;;2.80;;
10769;SDS011;5437;50.852;4.438;2023-04-25T21:17:44;6.03;;;2.83;;
10769;SDS011;5437;50.852;4.438;2023-04-25T21:20:14;5.63;;;2.97;;
10769;SDS011;5437;50.852;4.438;2023-04-25T21:22:42;5.88;;;3.17;;